createdAt,value
2022-09-13T00:03:16.921Z,17.02
2022-09-13T00:15:17.391Z,17.05
2022-09-13T00:27:17.852Z,15.36
2022-09-13T00:39:18.293Z,16.84
2022-09-13T00:51:18.745Z,16.48
2022-09-13T01:03:19.186Z,16.89
2022-09-13T01:15:19.684Z,16.59
2022-09-13T01:27:20.080Z,15.50
2022-09-13T01:39:20.569Z,16.22
2022-09-13T01:51:21.004Z,16.11
2022-09-13T02:03:21.485Z,16.03
2022-09-13T02:15:21.882Z,15.47
2022-09-13T02:27:22.374Z,15.64
2022-09-13T02:39:22.795Z,15.76
2022-09-13T02:51:23.288Z,15.42
2022-09-13T03:03:23.757Z,15.57
2022-09-13T03:15:24.220Z,15.33
2022-09-13T03:27:24.666Z,15.29
2022-09-13T03:39:25.125Z,15.24
2022-09-13T03:51:25.558Z,14.40
2022-09-13T04:03:25.991Z,14.87
2022-09-13T04:15:26.405Z,14.30
2022-09-13T04:27:26.925Z,14.71
2022-09-13T04:39:27.375Z,14.74
2022-09-13T04:51:27.833Z,14.48
2022-09-13T05:03:28.281Z,14.52
2022-09-13T05:15:28.738Z,14.58
2022-09-13T05:27:29.179Z,14.65
2022-09-13T05:39:39.785Z,14.15
2022-09-13T05:51:30.051Z,14.03
2022-09-13T06:03:30.569Z,15.11
2022-09-13T06:15:30.936Z,15.38
2022-09-13T06:27:31.475Z,15.94
2022-09-13T06:39:31.925Z,16.35
2022-09-13T06:51:32.435Z,16.56
2022-09-13T07:03:32.770Z,17.91
2022-09-13T07:15:33.339Z,18.90
2022-09-13T07:27:33.714Z,20.87
2022-09-13T07:39:34.201Z,22.62
2022-09-13T07:51:34.642Z,23.48
2022-09-13T08:03:35.058Z,23.43
2022-09-13T08:15:35.557Z,23.85
2022-09-13T08:27:35.996Z,24.19
2022-09-13T08:39:36.437Z,24.12
2022-09-13T08:51:36.885Z,25.22
2022-09-13T09:03:37.330Z,26.06
2022-09-13T09:15:37.853Z,24.54
2022-09-13T09:27:38.264Z,25.70
2022-09-13T09:39:38.713Z,27.02
2022-09-13T09:51:39.173Z,26.17
2022-09-13T10:03:39.641Z,26.38
2022-09-13T10:15:40.083Z,27.69
2022-09-13T10:27:40.495Z,27.34
2022-09-13T10:39:41.016Z,26.99
2022-09-13T10:51:41.476Z,28.15
2022-09-13T11:03:41.937Z,27.41
2022-09-13T11:15:42.368Z,29.54
2022-09-13T11:27:42.803Z,29.65
2022-09-13T11:39:43.284Z,30.29
2022-09-13T11:51:43.728Z,27.15
2022-09-13T12:03:44.161Z,28.81
2022-09-13T12:15:44.602Z,29.82
2022-09-13T12:27:45.095Z,29.22
2022-09-13T12:39:45.573Z,27.89
2022-09-13T12:51:46.024Z,27.73
2022-09-13T13:03:46.569Z,29.33
2022-09-13T13:15:50.071Z,28.44
2022-09-13T13:27:48.619Z,29.18
2022-09-13T13:39:47.870Z,28.87
2022-09-13T13:51:48.265Z,28.09
2022-09-13T14:03:48.821Z,28.22
2022-09-13T14:15:49.241Z,27.50
2022-09-13T14:27:49.631Z,27.30
2022-09-13T14:39:50.133Z,28.37
2022-09-13T14:51:50.594Z,28.26
2022-09-13T15:03:51.021Z,29.88
2022-09-13T15:15:51.580Z,28.69
2022-09-13T15:27:51.949Z,27.84
2022-09-13T15:39:52.433Z,27.47
2022-09-13T15:51:52.858Z,26.41
2022-09-13T16:03:53.307Z,27.21
2022-09-13T16:27:54.253Z,26.73
2022-09-13T16:39:54.729Z,25.99
2022-09-13T16:51:55.145Z,25.58
2022-09-13T17:03:55.591Z,25.50
2022-09-13T17:15:56.695Z,24.54
2022-09-13T17:27:56.473Z,24.16
2022-09-13T17:39:56.993Z,23.86
2022-09-13T17:51:57.415Z,23.86
2022-09-13T18:03:57.873Z,23.83
2022-09-13T18:15:58.340Z,23.26
2022-09-13T18:27:58.807Z,23.56
2022-09-13T18:39:59.268Z,23.12
2022-09-13T18:51:59.738Z,22.94
2022-09-13T19:04:00.141Z,23.04
2022-09-13T19:16:00.629Z,23.25
2022-09-13T19:28:01.024Z,22.72
2022-09-13T19:40:01.550Z,22.74
2022-09-13T19:52:01.927Z,22.55
2022-09-13T20:04:02.404Z,22.33
2022-09-13T20:16:02.916Z,22.57
2022-09-13T20:28:03.341Z,22.51
2022-09-13T20:40:03.816Z,22.60
2022-09-13T20:52:04.218Z,22.74
2022-09-13T21:04:04.657Z,22.67
2022-09-13T21:16:05.169Z,22.57
2022-09-13T21:28:05.592Z,22.63
2022-09-13T21:40:06.082Z,22.07
2022-09-13T21:52:06.466Z,22.68
2022-09-13T22:04:06.967Z,22.17
2022-09-13T22:16:07.409Z,22.39
2022-09-13T22:28:07.866Z,22.01
2022-09-13T22:40:08.347Z,22.23
2022-09-13T22:52:08.794Z,22.12
2022-09-13T23:04:09.209Z,22.18
2022-09-13T23:16:09.750Z,22.32
2022-09-13T23:28:10.130Z,22.03
2022-09-13T23:40:10.638Z,21.79
2022-09-13T23:52:11.049Z,21.83
